Portada
METAR-TAF:

METAR-TAF

Aeropuertos :

Aeropuerto Internacional de Harbin

Harbin, China

latitud: 45-45N, longitud: 126-46E, altitud: 143 m

Observación

El informe se hizo hace 43 minutos, a las 04:00 UTC
Viento 4 kt del suroeste
Temperatura -1°C
Humedad 59%
Presión 1031 hPa
Visibilidad 10 km o más
sin nubes por debajo de 1500 m y sin presencia de cumulonimbus.

METAR: ZYHB 200400Z 22002MPS CAVOK M01/M08 Q1031 NOSIG

Hora: 12:43 (04:43 UTC)

Pronóstico

El informe se hizo hace 7 horas y 32 minutos, a las 21:11 UTC
Pronóstico válido del 20 a las 00 UTC al 20 a las 24 UTC
Viento 8 kt del sur
Visibilidad: 6000 m
Nubes dispersas a una altura de 3000 ft
Evolucionando progresivamente
del 20 a las 18 UTC al 20 a las 20 UTC
Visibilidad: 2000 m
poca nieve

TAF: ZYHB 192111Z 2000/2024 17004MPS 6000 SCT030 TXM02/2006Z TNM13/2021Z BECMG 2018/2020 2000 -SN

Observaciones y pronósticos meteorológicos de más de 4000 aeropuertos (mensajes METAR y TAF).

Los puntos amarillos y rojos representan las estaciones disponibles.

Ponga el ratón en el punto deseado para ver el nombre de la estación.

Haga clic para ver las observaciones y los pronósticos meteorológicos.

Para cambiar el mapa : haga clic en los botones verdes con una cruz de color negro para hacer un zoom, en el botón verde con un guión para alejar o en las flechas verdes para mapas adyacentes.


METAR-TAF: